No particular awareness of the weather is required.    There are no Weather-warnings


Meteo18 Weather Cam more information Meteo18 Weather Cam


Thunder radar more information blitzortung!


Rain radar more information rain snow radar


Visit our other weather sites:

Template documentation
and downloads

And another site



Weather Underground History page Text

Daily Summary for November 3, 2017 Units:  Both    English   Metric
« Previous Day
Next Day »
Daily Weekly Monthly Yearly Custom
  High: Low: Average:
Temperature: 63.9 °F /  17.7 °C 41.9 °F /  5.5 °C 54 °F /  12.2 °C
Dew Point: 53.2 °F /  11.8 °C 40.8 °F /  4.9 °C 49.5 °F /  9.7 °C
Humidity: 100 % 65 % 86 %
Wind Speed: 6 mph /  9.7 km/h - 1.1 mph /  1.7 km/h
Wind Gust: 8 mph /  12.9 km/h - -
Wind:- - ESE
Pressure: 30.1 in /  1018.5 hPa 29.9 in /  1012.1 hPa -
Precipitation: 0 in /  0.0 mm    
Historical Graphs
 
 
Tabular Data for November 3, 2017
Time Temperature Dew Point Pressure Wind Wind Speed Wind Gust Humidity Rainfall Rate (Hourly)
00:02 49.5 °F /  9.7 °C 48.4 °F /  9.1 °C 30.1 in /  1018.5 hPa Calm   1 mph /  1.6 km/h 96 % 0 in /  0.0 mm
00:07 49.5 °F /  9.7 °C 48.4 °F /  9.1 °C 30.1 in /  1018.5 hPa NNE 2 mph /  3.2 km/h 2 mph /  3.2 km/h 96 % 0 in /  0.0 mm
00:12 48.9 °F /  9.4 °C 47.5 °F /  8.6 °C 30.1 in /  1018.5 hPa North 2 mph /  3.2 km/h 2 mph /  3.2 km/h 95 % 0 in /  0.0 mm
00:17 49.1 °F /  9.5 °C 48 °F /  8.9 °C 30.1 in /  1018.5 hPa North 2 mph /  3.2 km/h 3 mph /  4.8 km/h 96 % 0 in /  0.0 mm
00:22 48.9 °F /  9.4 °C 47.8 °F /  8.8 °C 30.1 in /  1018.5 hPa North 1 mph /  1.6 km/h 3 mph /  4.8 km/h 96 % 0 in /  0.0 mm
00:27 49.1 °F /  9.5 °C 48 °F /  8.9 °C 30.1 in /  1018.5 hPa Calm   3 mph /  4.8 km/h 96 % 0 in /  0.0 mm
00:32 49.1 °F /  9.5 °C 48 °F /  8.9 °C 30.1 in /  1018.5 hPa Calm   2 mph /  3.2 km/h 96 % 0 in /  0.0 mm
00:37 48.7 °F /  9.3 °C 47.7 °F /  8.7 °C 30.1 in /  1018.5 hPa Calm   2 mph /  3.2 km/h 96 % 0 in /  0.0 mm
00:42 48.7 °F /  9.3 °C 47.7 °F /  8.7 °C 30.1 in /  1018.5 hPa NNW 1 mph /  1.6 km/h 1 mph /  1.6 km/h 96 % 0 in /  0.0 mm
00:47 48.9 °F /  9.4 °C 47.8 °F /  8.8 °C 30.1 in /  1018.5 hPa NNW 1 mph /  1.6 km/h 2 mph /  3.2 km/h 96 % 0 in /  0.0 mm
00:52 49.1 °F /  9.5 °C 48 °F /  8.9 °C 30.1 in /  1018.5 hPa Calm   2 mph /  3.2 km/h 96 % 0 in /  0.0 mm
00:57 48.7 °F /  9.3 °C 47.7 °F /  8.7 °C 30.1 in /  1018.5 hPa NNW 1 mph /  1.6 km/h 2 mph /  3.2 km/h 96 % 0 in /  0.0 mm
01:02 48.7 °F /  9.3 °C 47.7 °F /  8.7 °C 30.1 in /  1018.5 hPa NNW 1 mph /  1.6 km/h 2 mph /  3.2 km/h 96 % 0 in /  0.0 mm
01:07 49.1 °F /  9.5 °C 48.2 °F /  9.0 °C 30.1 in /  1018.5 hPa NNW 1 mph /  1.6 km/h 2 mph /  3.2 km/h 97 % 0 in /  0.0 mm
01:12 48.7 °F /  9.3 °C 47.7 °F /  8.7 °C 30.1 in /  1018.5 hPa North 1 mph /  1.6 km/h 2 mph /  3.2 km/h 96 % 0 in /  0.0 mm
01:17 48.6 °F /  9.2 °C 47.5 °F /  8.6 °C 30.1 in /  1018.5 hPa NNW 1 mph /  1.6 km/h 2 mph /  3.2 km/h 96 % 0 in /  0.0 mm
01:22 48.9 °F /  9.4 °C 48 °F /  8.9 °C 30.1 in /  1018.2 hPa NNW 2 mph /  3.2 km/h 2 mph /  3.2 km/h 97 % 0 in /  0.0 mm
01:27 49.1 °F /  9.5 °C 48.2 °F /  9.0 °C 30.1 in /  1018.2 hPa Calm   2 mph /  3.2 km/h 97 % 0 in /  0.0 mm
01:37 48.7 °F /  9.3 °C 47.7 °F /  8.7 °C 30.1 in /  1018.2 hPa Calm   2 mph /  3.2 km/h 96 % 0 in /  0.0 mm
01:42 48.6 °F /  9.2 °C 47.5 °F /  8.6 °C 30.1 in /  1018.2 hPa Calm   1 mph /  1.6 km/h 96 % 0 in /  0.0 mm
01:47 48 °F /  8.9 °C 46.9 °F /  8.3 °C 30.1 in /  1018.2 hPa Calm   1 mph /  1.6 km/h 96 % 0 in /  0.0 mm
01:57 47.3 °F /  8.5 °C 46.2 °F /  7.9 °C 30.1 in /  1018.2 hPa WNW 1 mph /  1.6 km/h 1 mph /  1.6 km/h 96 % 0 in /  0.0 mm
02:02 47.3 °F /  8.5 °C 46.2 °F /  7.9 °C 30.1 in /  1018.2 hPa Calm   1 mph /  1.6 km/h 96 % 0 in /  0.0 mm
02:07 47.8 °F /  8.8 °C 46.9 °F /  8.3 °C 30.1 in /  1017.8 hPa Calm   1 mph /  1.6 km/h 97 % 0 in /  0.0 mm
02:12 48.4 °F /  9.1 °C 47.5 °F /  8.6 °C 30.1 in /  1018.2 hPa Calm   1 mph /  1.6 km/h 97 % 0 in /  0.0 mm
02:17 48.7 °F /  9.3 °C 47.8 °F /  8.8 °C 30.1 in /  1018.2 hPa Calm   1 mph /  1.6 km/h 97 % 0 in /  0.0 mm
02:22 48.7 °F /  9.3 °C 47.8 °F /  8.8 °C 30.1 in /  1017.8 hPa Calm   1 mph /  1.6 km/h 97 % 0 in /  0.0 mm
02:32 48.7 °F /  9.3 °C 47.8 °F /  8.8 °C 30.1 in /  1017.8 hPa Calm   1 mph /  1.6 km/h 97 % 0 in /  0.0 mm
02:37 48.4 °F /  9.1 °C 47.3 °F /  8.5 °C 30.1 in /  1018.2 hPa Calm   1 mph /  1.6 km/h 96 % 0 in /  0.0 mm
02:42 47.1 °F /  8.4 °C 45.7 °F /  7.6 °C 30.1 in /  1017.8 hPa Calm   1 mph /  1.6 km/h 95 % 0 in /  0.0 mm
02:47 46.9 °F /  8.3 °C 45.9 °F /  7.7 °C 30.1 in /  1017.8 hPa Calm     96 % 0 in /  0.0 mm
02:52 47.5 °F /  8.6 °C 46.8 °F /  8.2 °C 30.1 in /  1017.8 hPa Calm     97 % 0 in /  0.0 mm
02:57 46.8 °F /  8.2 °C 45.7 °F /  7.6 °C 30.1 in /  1017.8 hPa Calm   1 mph /  1.6 km/h 96 % 0 in /  0.0 mm
03:02 46.9 °F /  8.3 °C 45.9 °F /  7.7 °C 30.1 in /  1017.8 hPa WNW 1 mph /  1.6 km/h 1 mph /  1.6 km/h 96 % 0 in /  0.0 mm
03:07 47.5 °F /  8.6 °C 46.8 °F /  8.2 °C 30.1 in /  1017.8 hPa Calm   1 mph /  1.6 km/h 97 % 0 in /  0.0 mm
03:12 47.5 °F /  8.6 °C 46.8 °F /  8.2 °C 30.1 in /  1017.8 hPa Calm   1 mph /  1.6 km/h 97 % 0 in /  0.0 mm
03:17 47.1 °F /  8.4 °C 46.4 °F /  8.0 °C 30.1 in /  1017.8 hPa North 1 mph /  1.6 km/h 1 mph /  1.6 km/h 97 % 0 in /  0.0 mm
03:22 47.5 °F /  8.6 °C 46.8 °F /  8.2 °C 30.1 in /  1017.8 hPa North 1 mph /  1.6 km/h 2 mph /  3.2 km/h 97 % 0 in /  0.0 mm
03:27 47.7 °F /  8.7 °C 46.9 °F /  8.3 °C 30.1 in /  1017.8 hPa North 1 mph /  1.6 km/h 2 mph /  3.2 km/h 97 % 0 in /  0.0 mm
03:32 47.5 °F /  8.6 °C 46.8 °F /  8.2 °C 30.1 in /  1017.8 hPa North 1 mph /  1.6 km/h 2 mph /  3.2 km/h 97 % 0 in /  0.0 mm
03:37 47.5 °F /  8.6 °C 46.8 °F /  8.2 °C 30.1 in /  1017.8 hPa Calm   2 mph /  3.2 km/h 97 % 0 in /  0.0 mm
03:42 47.7 °F /  8.7 °C 47.7 °F /  8.7 °C 30.1 in /  1017.8 hPa Calm   2 mph /  3.2 km/h 100 % 0 in /  0.0 mm
03:47 47.7 °F /  8.7 °C 47.7 °F /  8.7 °C 30.1 in /  1017.5 hPa Calm   2 mph /  3.2 km/h 100 % 0 in /  0.0 mm
03:52 47.7 °F /  8.7 °C 47.7 °F /  8.7 °C 30.1 in /  1017.8 hPa Calm   1 mph /  1.6 km/h 100 % 0 in /  0.0 mm
08:17 42.8 °F /  6.0 °C 42.1 °F /  5.6 °C 30 in /  1016.8 hPa Calm   -998.7 mph /  -1607.4 km/h 97 % 0 in /  0 mm
08:22 42.6 °F /  5.9 °C 41.9 °F /  5.5 °C 30 in /  1016.8 hPa NNE 1 mph /  1.6 km/h 1 mph /  1.6 km/h 97 % 0 in /  0.0 mm
08:27 41.9 °F /  5.5 °C 40.8 °F /  4.9 °C 30 in /  1016.8 hPa Calm   1 mph /  1.6 km/h 96 % 0 in /  0.0 mm
08:32 42.4 °F /  5.8 °C 41.7 °F /  5.4 °C 30 in /  1016.8 hPa Calm   1 mph /  1.6 km/h 97 % 0 in /  0.0 mm
08:37 43.2 °F /  6.2 °C 42.4 °F /  5.8 °C 30 in /  1016.8 hPa Calm   1 mph /  1.6 km/h 97 % 0 in /  0.0 mm
08:42 43.5 °F /  6.4 °C 42.8 °F /  6.0 °C 30 in /  1016.8 hPa Calm     97 % 0 in /  0.0 mm
08:47 43.9 °F /  6.6 °C 43.3 °F /  6.3 °C 30 in /  1017.2 hPa Calm     98 % 0 in /  0.0 mm
08:52 43.9 °F /  6.6 °C 43.2 °F /  6.2 °C 30 in /  1017.2 hPa Calm     97 % 0 in /  0.0 mm
08:57 44.1 °F /  6.7 °C 43.3 °F /  6.3 °C 30 in /  1017.2 hPa Calm   1 mph /  1.6 km/h 97 % 0 in /  0.0 mm
09:02 44.4 °F /  6.9 °C 43.7 °F /  6.5 °C 30 in /  1017.2 hPa Calm   1 mph /  1.6 km/h 97 % 0 in /  0.0 mm
09:07 44.6 °F /  7.0 °C 43.9 °F /  6.6 °C 30 in /  1016.8 hPa Calm   1 mph /  1.6 km/h 97 % 0 in /  0.0 mm
09:12 45 °F /  7.2 °C 44.2 °F /  6.8 °C 30 in /  1016.8 hPa Calm   1 mph /  1.6 km/h 97 % 0 in /  0.0 mm
09:17 45.1 °F /  7.3 °C 44.4 °F /  6.9 °C 30 in /  1016.8 hPa Calm   1 mph /  1.6 km/h 97 % 0 in /  0.0 mm
09:22 45.3 °F /  7.4 °C 44.6 °F /  7.0 °C 30 in /  1016.8 hPa Calm     97 % 0 in /  0.0 mm
09:27 45.3 °F /  7.4 °C 44.6 °F /  7.0 °C 30 in /  1016.5 hPa Calm     97 % 0 in /  0.0 mm
09:37 45.7 °F /  7.6 °C 45 °F /  7.2 °C 30 in /  1016.5 hPa Calm     97 % 0 in /  0.0 mm
09:42 46.4 °F /  8.0 °C 45.7 °F /  7.6 °C 30 in /  1016.8 hPa Calm     97 % 0 in /  0.0 mm
09:47 46.8 °F /  8.2 °C 46.2 °F /  7.9 °C 30 in /  1016.8 hPa East 1 mph /  1.6 km/h   98 % 0 in /  0.0 mm
09:52 46.9 °F /  8.3 °C 46.4 °F /  8.0 °C 30 in /  1016.8 hPa ENE 2 mph /  3.2 km/h 2 mph /  3.2 km/h 98 % 0 in /  0.0 mm
10:02 47.7 °F /  8.7 °C 46.9 °F /  8.3 °C 30 in /  1016.5 hPa ENE 1 mph /  1.6 km/h 3 mph /  4.8 km/h 97 % 0 in /  0.0 mm
10:07 48.4 °F /  9.1 °C 47.8 °F /  8.8 °C 30 in /  1016.5 hPa East 2 mph /  3.2 km/h 3 mph /  4.8 km/h 98 % 0 in /  0.0 mm
10:12 48.6 °F /  9.2 °C 48 °F /  8.9 °C 30 in /  1016.5 hPa ENE 1 mph /  1.6 km/h 3 mph /  4.8 km/h 98 % 0 in /  0.0 mm
10:17 48.9 °F /  9.4 °C 48.4 °F /  9.1 °C 30 in /  1016.5 hPa ENE 1 mph /  1.6 km/h 4 mph /  6.4 km/h 98 % 0 in /  0.0 mm
10:22 49.3 °F /  9.6 °C 48.7 °F /  9.3 °C 30 in /  1016.5 hPa Calm   4 mph /  6.4 km/h 98 % 0 in /  0.0 mm
10:27 49.5 °F /  9.7 °C 48.9 °F /  9.4 °C 30 in /  1016.5 hPa Calm   4 mph /  6.4 km/h 98 % 0 in /  0.0 mm
10:32 49.5 °F /  9.7 °C 48.6 °F /  9.2 °C 30 in /  1016.5 hPa Calm   2 mph /  3.2 km/h 97 % 0 in /  0.0 mm
10:37 49.8 °F /  9.9 °C 48.9 °F /  9.4 °C 30 in /  1016.5 hPa Calm   2 mph /  3.2 km/h 97 % 0 in /  0.0 mm
10:42 50.4 °F /  10.2 °C 49.5 °F /  9.7 °C 30 in /  1016.5 hPa Calm   2 mph /  3.2 km/h 97 % 0 in /  0.0 mm
10:47 50.7 °F /  10.4 °C 50.2 °F /  10.1 °C 30 in /  1016.5 hPa Calm   2 mph /  3.2 km/h 98 % 0 in /  0.0 mm
10:52 51.3 °F /  10.7 °C 50.4 °F /  10.2 °C 30 in /  1016.5 hPa Calm   1 mph /  1.6 km/h 97 % 0 in /  0.0 mm
10:57 51.4 °F /  10.8 °C 50.5 °F /  10.3 °C 30 in /  1016.5 hPa Calm     97 % 0 in /  0.0 mm
11:02 51.6 °F /  10.9 °C 50.7 °F /  10.4 °C 30 in /  1016.1 hPa Calm     97 % 0 in /  0.0 mm
11:07 52 °F /  11.1 °C 51.1 °F /  10.6 °C 30 in /  1016.1 hPa NE 2 mph /  3.2 km/h   97 % 0 in /  0.0 mm
11:12 52.3 °F /  11.3 °C 51.4 °F /  10.8 °C 30 in /  1016.1 hPa East 1 mph /  1.6 km/h 3 mph /  4.8 km/h 97 % 0 in /  0.0 mm
11:17 52.5 °F /  11.4 °C 51.4 °F /  10.8 °C 30 in /  1016.1 hPa NE 2 mph /  3.2 km/h 4 mph /  6.4 km/h 96 % 0 in /  0.0 mm
11:22 53.2 °F /  11.8 °C 52.3 °F /  11.3 °C 30 in /  1016.1 hPa Calm   4 mph /  6.4 km/h 97 % 0 in /  0.0 mm
11:27 53.6 °F /  12.0 °C 52.5 °F /  11.4 °C 30 in /  1016.1 hPa Calm   4 mph /  6.4 km/h 96 % 0 in /  0.0 mm
11:32 54.1 °F /  12.3 °C 53.1 °F /  11.7 °C 30 in /  1016.1 hPa Calm   3 mph /  4.8 km/h 96 % 0 in /  0.0 mm
11:37 54.3 °F /  12.4 °C 52.7 °F /  11.5 °C 30 in /  1015.8 hPa ESE 1 mph /  1.6 km/h 3 mph /  4.8 km/h 94 % 0 in /  0.0 mm
11:42 54.9 °F /  12.7 °C 53.2 °F /  11.8 °C 30 in /  1015.8 hPa NE 3 mph /  4.8 km/h 3 mph /  4.8 km/h 94 % 0 in /  0.0 mm
11:47 55.2 °F /  12.9 °C 52.7 °F /  11.5 °C 30 in /  1015.8 hPa NNE 1 mph /  1.6 km/h 4 mph /  6.4 km/h 91 % 0 in /  0.0 mm
11:52 55.8 °F /  13.2 °C 52.9 °F /  11.6 °C 30 in /  1015.8 hPa NE 2 mph /  3.2 km/h 4 mph /  6.4 km/h 90 % 0 in /  0.0 mm
11:57 55.9 °F /  13.3 °C 52.5 °F /  11.4 °C 30 in /  1015.8 hPa ENE 2 mph /  3.2 km/h 4 mph /  6.4 km/h 88 % 0 in /  0.0 mm
12:07 56.7 °F /  13.7 °C 52.5 °F /  11.4 °C 30 in /  1015.8 hPa NE 3 mph /  4.8 km/h 4 mph /  6.4 km/h 86 % 0 in /  0.0 mm
12:12 57 °F /  13.9 °C 52.5 °F /  11.4 °C 30 in /  1015.8 hPa NNW 2 mph /  3.2 km/h 5 mph /  8.0 km/h 85 % 0 in /  0.0 mm
12:17 57.6 °F /  14.2 °C 52.7 °F /  11.5 °C 30 in /  1015.8 hPa ENE 3 mph /  4.8 km/h 5 mph /  8.0 km/h 84 % 0 in /  0.0 mm
12:22 57.9 °F /  14.4 °C 52.7 °F /  11.5 °C 30 in /  1015.5 hPa NE 3 mph /  4.8 km/h 5 mph /  8.0 km/h 83 % 0 in /  0.0 mm
12:27 58.3 °F /  14.6 °C 52.5 °F /  11.4 °C 30 in /  1015.5 hPa NE 1 mph /  1.6 km/h 5 mph /  8.0 km/h 81 % 0 in /  0.0 mm
12:32 58.6 °F /  14.8 °C 52.2 °F /  11.2 °C 30 in /  1015.5 hPa ESE 2 mph /  3.2 km/h 5 mph /  8.0 km/h 79 % 0 in /  0.0 mm
12:37 59.2 °F /  15.1 °C 52.3 °F /  11.3 °C 30 in /  1015.5 hPa East 4 mph /  6.4 km/h 4 mph /  6.4 km/h 78 % 0 in /  0.0 mm
12:42 59.7 °F /  15.4 °C 52.2 °F /  11.2 °C 30 in /  1015.5 hPa East 3 mph /  4.8 km/h 5 mph /  8.0 km/h 76 % 0 in /  0.0 mm
12:47 60.1 °F /  15.6 °C 51.4 °F /  10.8 °C 30 in /  1015.5 hPa ENE 2 mph /  3.2 km/h 6 mph /  9.7 km/h 73 % 0 in /  0.0 mm
12:52 60.1 °F /  15.6 °C 51.4 °F /  10.8 °C 30 in /  1015.1 hPa ESE 2 mph /  3.2 km/h 6 mph /  9.7 km/h 73 % 0 in /  0.0 mm
12:57 60.4 °F /  15.8 °C 51.8 °F /  11.0 °C 30 in /  1015.1 hPa Calm   6 mph /  9.7 km/h 73 % 0 in /  0.0 mm
13:02 60.6 °F /  15.9 °C 51.6 °F /  10.9 °C 30 in /  1015.1 hPa Calm   6 mph /  9.7 km/h 72 % 0 in /  0.0 mm
13:07 61.3 °F /  16.3 °C 51.8 °F /  11.0 °C 30 in /  1015.1 hPa Calm   6 mph /  9.7 km/h 71 % 0 in /  0.0 mm
13:12 61.5 °F /  16.4 °C 52 °F /  11.1 °C 30 in /  1015.1 hPa Calm   5 mph /  8.0 km/h 71 % 0 in /  0.0 mm
13:17 61.9 °F /  16.6 °C 51.6 °F /  10.9 °C 30 in /  1014.8 hPa Calm   5 mph /  8.0 km/h 69 % 0 in /  0.0 mm
13:22 61.9 °F /  16.6 °C 51.6 °F /  10.9 °C 30 in /  1014.8 hPa East 1 mph /  1.6 km/h 5 mph /  8.0 km/h 69 % 0 in /  0.0 mm
13:27 61.9 °F /  16.6 °C 51.6 °F /  10.9 °C 30 in /  1014.8 hPa SE 3 mph /  4.8 km/h 4 mph /  6.4 km/h 69 % 0 in /  0.0 mm
13:32 62.1 °F /  16.7 °C 51.8 °F /  11.0 °C 30 in /  1014.8 hPa ESE 4 mph /  6.4 km/h 5 mph /  8.0 km/h 69 % 0 in /  0.0 mm
13:37 62.2 °F /  16.8 °C 52 °F /  11.1 °C 30 in /  1014.8 hPa East 2 mph /  3.2 km/h 6 mph /  9.7 km/h 69 % 0 in /  0.0 mm
13:42 62.2 °F /  16.8 °C 51.6 °F /  10.9 °C 30 in /  1014.4 hPa ENE 6 mph /  9.7 km/h 6 mph /  9.7 km/h 68 % 0 in /  0.0 mm
13:47 62.4 °F /  16.9 °C 51.8 °F /  11.0 °C 30 in /  1014.4 hPa NE 3 mph /  4.8 km/h 8 mph /  12.9 km/h 68 % 0 in /  0.0 mm
13:52 62.6 °F /  17.0 °C 51.4 °F /  10.8 °C 30 in /  1014.4 hPa ENE 2 mph /  3.2 km/h 8 mph /  12.9 km/h 67 % 0 in /  0.0 mm
14:02 62.8 °F /  17.1 °C 51.6 °F /  10.9 °C 30 in /  1014.4 hPa ENE 4 mph /  6.4 km/h 7 mph /  11.3 km/h 67 % 0 in /  0.0 mm
14:07 63.1 °F /  17.3 °C 51.6 °F /  10.9 °C 30 in /  1014.4 hPa ENE 3 mph /  4.8 km/h 6 mph /  9.7 km/h 66 % 0 in /  0.0 mm
14:12 63.3 °F /  17.4 °C 51.8 °F /  11.0 °C 29.9 in /  1014.1 hPa Calm   6 mph /  9.7 km/h 66 % 0 in /  0.0 mm
14:17 63.3 °F /  17.4 °C 51.8 °F /  11.0 °C 29.9 in /  1014.1 hPa East 4 mph /  6.4 km/h 6 mph /  9.7 km/h 66 % 0 in /  0.0 mm
14:22 63.7 °F /  17.6 °C 52.2 °F /  11.2 °C 29.9 in /  1014.1 hPa East 4 mph /  6.4 km/h 6 mph /  9.7 km/h 66 % 0 in /  0.0 mm
14:27 63.5 °F /  17.5 °C 52 °F /  11.1 °C 29.9 in /  1014.1 hPa ENE 3 mph /  4.8 km/h 6 mph /  9.7 km/h 66 % 0 in /  0.0 mm
14:32 63.7 °F /  17.6 °C 52.2 °F /  11.2 °C 29.9 in /  1014.1 hPa East 4 mph /  6.4 km/h 6 mph /  9.7 km/h 66 % 0 in /  0.0 mm
14:37 63.7 °F /  17.6 °C 51.6 °F /  10.9 °C 29.9 in /  1014.1 hPa ENE 2 mph /  3.2 km/h 6 mph /  9.7 km/h 65 % 0 in /  0.0 mm
14:42 63.9 °F /  17.7 °C 51.8 °F /  11.0 °C 29.9 in /  1014.1 hPa Calm   6 mph /  9.7 km/h 65 % 0 in /  0.0 mm
14:47 63.7 °F /  17.6 °C 51.6 °F /  10.9 °C 29.9 in /  1013.8 hPa NNE 2 mph /  3.2 km/h 6 mph /  9.7 km/h 65 % 0 in /  0.0 mm
14:52 63.7 °F /  17.6 °C 51.6 °F /  10.9 °C 29.9 in /  1013.8 hPa East 3 mph /  4.8 km/h 6 mph /  9.7 km/h 65 % 0 in /  0.0 mm
14:57 63.3 °F /  17.4 °C 51.4 °F /  10.8 °C 29.9 in /  1013.8 hPa ENE 2 mph /  3.2 km/h 6 mph /  9.7 km/h 65 % 0 in /  0.0 mm
15:02 63.1 °F /  17.3 °C 51.3 °F /  10.7 °C 29.9 in /  1013.8 hPa Calm   6 mph /  9.7 km/h 65 % 0 in /  0.0 mm
15:07 63 °F /  17.2 °C 51.8 °F /  11.0 °C 29.9 in /  1013.8 hPa NE 2 mph /  3.2 km/h 6 mph /  9.7 km/h 67 % 0 in /  0.0 mm
15:12 62.6 °F /  17.0 °C 51.4 °F /  10.8 °C 29.9 in /  1013.8 hPa East 1 mph /  1.6 km/h 4 mph /  6.4 km/h 67 % 0 in /  0.0 mm
15:17 62.6 °F /  17.0 °C 51.4 °F /  10.8 °C 29.9 in /  1013.8 hPa ENE 1 mph /  1.6 km/h 3 mph /  4.8 km/h 67 % 0 in /  0.0 mm
15:22 62.6 °F /  17.0 °C 51.4 °F /  10.8 °C 29.9 in /  1013.8 hPa ENE 1 mph /  1.6 km/h 3 mph /  4.8 km/h 67 % 0 in /  0.0 mm
15:27 62.4 °F /  16.9 °C 51.3 °F /  10.7 °C 29.9 in /  1013.8 hPa East 1 mph /  1.6 km/h 3 mph /  4.8 km/h 67 % 0 in /  0.0 mm
15:32 62.4 °F /  16.9 °C 51.3 °F /  10.7 °C 29.9 in /  1013.8 hPa ENE 1 mph /  1.6 km/h 3 mph /  4.8 km/h 67 % 0 in /  0.0 mm
15:37 62.4 °F /  16.9 °C 51.8 °F /  11.0 °C 29.9 in /  1013.8 hPa Calm   3 mph /  4.8 km/h 68 % 0 in /  0.0 mm
15:42 62.4 °F /  16.9 °C 51.8 °F /  11.0 °C 29.9 in /  1013.8 hPa ENE 1 mph /  1.6 km/h 2 mph /  3.2 km/h 68 % 0 in /  0.0 mm
15:47 62.2 °F /  16.8 °C 52 °F /  11.1 °C 29.9 in /  1013.8 hPa Calm   2 mph /  3.2 km/h 69 % 0 in /  0.0 mm
15:52 62.2 °F /  16.8 °C 52.3 °F /  11.3 °C 29.9 in /  1013.4 hPa NE 1 mph /  1.6 km/h 2 mph /  3.2 km/h 70 % 0 in /  0.0 mm
15:57 62.1 °F /  16.7 °C 52.5 °F /  11.4 °C 29.9 in /  1013.4 hPa NE 4 mph /  6.4 km/h 4 mph /  6.4 km/h 71 % 0 in /  0.0 mm
16:02 61.5 °F /  16.4 °C 52.3 °F /  11.3 °C 29.9 in /  1013.4 hPa NE 3 mph /  4.8 km/h 4 mph /  6.4 km/h 72 % 0 in /  0.0 mm
16:07 61.3 °F /  16.3 °C 52.2 °F /  11.2 °C 29.9 in /  1013.4 hPa NE 1 mph /  1.6 km/h 4 mph /  6.4 km/h 72 % 0 in /  0.0 mm
16:12 61.2 °F /  16.2 °C 52.5 °F /  11.4 °C 29.9 in /  1013.4 hPa NE 3 mph /  4.8 km/h 5 mph /  8.0 km/h 73 % 0 in /  0.0 mm
16:17 60.8 °F /  16.0 °C 52.5 °F /  11.4 °C 29.9 in /  1013.4 hPa NE 3 mph /  4.8 km/h 5 mph /  8.0 km/h 74 % 0 in /  0.0 mm
16:22 60.6 °F /  15.9 °C 52.3 °F /  11.3 °C 29.9 in /  1013.4 hPa NNE 4 mph /  6.4 km/h 5 mph /  8.0 km/h 74 % 0 in /  0.0 mm
16:27 60.4 °F /  15.8 °C 52.5 °F /  11.4 °C 29.9 in /  1013.4 hPa NE 4 mph /  6.4 km/h 5 mph /  8.0 km/h 75 % 0 in /  0.0 mm
16:32 60.3 °F /  15.7 °C 52.3 °F /  11.3 °C 29.9 in /  1013.4 hPa NE 3 mph /  4.8 km/h 6 mph /  9.7 km/h 75 % 0 in /  0.0 mm
16:37 60.1 °F /  15.6 °C 52.2 °F /  11.2 °C 29.9 in /  1013.4 hPa NNE 3 mph /  4.8 km/h 6 mph /  9.7 km/h 75 % 0 in /  0.0 mm
16:42 59.7 °F /  15.4 °C 52.2 °F /  11.2 °C 29.9 in /  1013.4 hPa NE 3 mph /  4.8 km/h 5 mph /  8.0 km/h 76 % 0 in /  0.0 mm
16:52 59.5 °F /  15.3 °C 52.3 °F /  11.3 °C 29.9 in /  1013.4 hPa NE 2 mph /  3.2 km/h 5 mph /  8.0 km/h 77 % 0 in /  0.0 mm
16:57 59.2 °F /  15.1 °C 52 °F /  11.1 °C 29.9 in /  1013.4 hPa NNE 3 mph /  4.8 km/h 4 mph /  6.4 km/h 77 % 0 in /  0.0 mm
17:02 58.8 °F /  14.9 °C 52 °F /  11.1 °C 29.9 in /  1013.4 hPa NE 4 mph /  6.4 km/h 6 mph /  9.7 km/h 78 % 0 in /  0.0 mm
17:12 58.6 °F /  14.8 °C 51.8 °F /  11.0 °C 29.9 in /  1013.4 hPa NNE 2 mph /  3.2 km/h 6 mph /  9.7 km/h 78 % 0 in /  0.0 mm
17:17 58.6 °F /  14.8 °C 51.8 °F /  11.0 °C 29.9 in /  1013.4 hPa NE 1 mph /  1.6 km/h 6 mph /  9.7 km/h 78 % 0 in /  0.0 mm
17:22 58.5 °F /  14.7 °C 51.6 °F /  10.9 °C 29.9 in /  1013.4 hPa NE 3 mph /  4.8 km/h 6 mph /  9.7 km/h 78 % 0 in /  0.0 mm
17:27 58.5 °F /  14.7 °C 51.6 °F /  10.9 °C 29.9 in /  1013.4 hPa NE 1 mph /  1.6 km/h 4 mph /  6.4 km/h 78 % 0 in /  0.0 mm
17:32 58.3 °F /  14.6 °C 51.8 °F /  11.0 °C 29.9 in /  1013.4 hPa Calm   4 mph /  6.4 km/h 79 % 0 in /  0.0 mm
17:37 57.9 °F /  14.4 °C 51.4 °F /  10.8 °C 29.9 in /  1013.4 hPa NNE 1 mph /  1.6 km/h 4 mph /  6.4 km/h 79 % 0 in /  0.0 mm
17:42 57.7 °F /  14.3 °C 51.6 °F /  10.9 °C 29.9 in /  1013.4 hPa Calm   4 mph /  6.4 km/h 80 % 0 in /  0.0 mm
17:47 57.6 °F /  14.2 °C 51.4 °F /  10.8 °C 29.9 in /  1013.4 hPa NE 2 mph /  3.2 km/h 3 mph /  4.8 km/h 80 % 0 in /  0.0 mm
17:52 57.4 °F /  14.1 °C 51.6 °F /  10.9 °C 29.9 in /  1013.4 hPa NE 1 mph /  1.6 km/h 3 mph /  4.8 km/h 81 % 0 in /  0.0 mm
17:57 57.4 °F /  14.1 °C 51.6 °F /  10.9 °C 29.9 in /  1013.4 hPa NNE 1 mph /  1.6 km/h 3 mph /  4.8 km/h 81 % 0 in /  0.0 mm
18:02 57.4 °F /  14.1 °C 51.6 °F /  10.9 °C 29.9 in /  1013.4 hPa NE 1 mph /  1.6 km/h 3 mph /  4.8 km/h 81 % 0 in /  0.0 mm
18:07 57.2 °F /  14.0 °C 51.4 °F /  10.8 °C 29.9 in /  1013.4 hPa Calm   3 mph /  4.8 km/h 81 % 0 in /  0.0 mm
18:12 57 °F /  13.9 °C 51.3 °F /  10.7 °C 29.9 in /  1013.4 hPa Calm   3 mph /  4.8 km/h 81 % 0 in /  0.0 mm
18:22 56.7 °F /  13.7 °C 51.3 °F /  10.7 °C 29.9 in /  1013.4 hPa NE 4 mph /  6.4 km/h 4 mph /  6.4 km/h 82 % 0 in /  0.0 mm
18:32 57 °F /  13.9 °C 51.6 °F /  10.9 °C 29.9 in /  1013.1 hPa NNE 4 mph /  6.4 km/h 6 mph /  9.7 km/h 82 % 0 in /  0.0 mm
18:37 56.8 °F /  13.8 °C 51.4 °F /  10.8 °C 29.9 in /  1013.1 hPa ENE 4 mph /  6.4 km/h 8 mph /  12.9 km/h 82 % 0 in /  0.0 mm
18:47 56.8 °F /  13.8 °C 51.8 °F /  11.0 °C 29.9 in /  1013.1 hPa NE 1 mph /  1.6 km/h 7 mph /  11.3 km/h 83 % 0 in /  0.0 mm
18:52 56.8 °F /  13.8 °C 51.8 °F /  11.0 °C 29.9 in /  1013.1 hPa NE 2 mph /  3.2 km/h 5 mph /  8.0 km/h 83 % 0 in /  0.0 mm
18:57 56.8 °F /  13.8 °C 51.8 °F /  11.0 °C 29.9 in /  1013.1 hPa NE 2 mph /  3.2 km/h 5 mph /  8.0 km/h 83 % 0 in /  0.0 mm
19:02 56.8 °F /  13.8 °C 51.8 °F /  11.0 °C 29.9 in /  1013.4 hPa NE 3 mph /  4.8 km/h 5 mph /  8.0 km/h 83 % 0 in /  0.0 mm
19:07 57 °F /  13.9 °C 51.6 °F /  10.9 °C 29.9 in /  1013.4 hPa NE 2 mph /  3.2 km/h 5 mph /  8.0 km/h 82 % 0 in /  0.0 mm
19:12 57 °F /  13.9 °C 51.6 °F /  10.9 °C 29.9 in /  1013.4 hPa NNE 2 mph /  3.2 km/h 6 mph /  9.7 km/h 82 % 0 in /  0.0 mm
19:17 56.8 °F /  13.8 °C 51.4 °F /  10.8 °C 29.9 in /  1013.1 hPa NE 3 mph /  4.8 km/h 6 mph /  9.7 km/h 82 % 0 in /  0.0 mm
19:22 56.8 °F /  13.8 °C 51.4 °F /  10.8 °C 29.9 in /  1013.1 hPa NNE 2 mph /  3.2 km/h 4 mph /  6.4 km/h 82 % 0 in /  0.0 mm
19:27 56.8 °F /  13.8 °C 51.4 °F /  10.8 °C 29.9 in /  1013.1 hPa NE 1 mph /  1.6 km/h 4 mph /  6.4 km/h 82 % 0 in /  0.0 mm
19:32 56.8 °F /  13.8 °C 51.4 °F /  10.8 °C 29.9 in /  1013.1 hPa NE 2 mph /  3.2 km/h 4 mph /  6.4 km/h 82 % 0 in /  0.0 mm
19:37 56.7 °F /  13.7 °C 51.3 °F /  10.7 °C 29.9 in /  1013.1 hPa NNE 3 mph /  4.8 km/h 4 mph /  6.4 km/h 82 % 0 in /  0.0 mm
19:42 56.3 °F /  13.5 °C 50.9 °F /  10.5 °C 29.9 in /  1013.1 hPa NE 1 mph /  1.6 km/h 3 mph /  4.8 km/h 82 % 0 in /  0.0 mm
19:47 56.1 °F /  13.4 °C 51.1 °F /  10.6 °C 29.9 in /  1013.1 hPa NE 1 mph /  1.6 km/h 3 mph /  4.8 km/h 83 % 0 in /  0.0 mm
19:57 56.1 °F /  13.4 °C 51.1 °F /  10.6 °C 29.9 in /  1013.1 hPa Calm   4 mph /  6.4 km/h 83 % 0 in /  0.0 mm
20:02 55.9 °F /  13.3 °C 50.9 °F /  10.5 °C 29.9 in /  1013.1 hPa Calm   3 mph /  4.8 km/h 83 % 0 in /  0.0 mm
20:07 55.9 °F /  13.3 °C 50.9 °F /  10.5 °C 29.9 in /  1012.8 hPa Calm   3 mph /  4.8 km/h 83 % 0 in /  0.0 mm
20:12 55.8 °F /  13.2 °C 50.7 °F /  10.4 °C 29.9 in /  1013.1 hPa Calm   2 mph /  3.2 km/h 83 % 0 in /  0.0 mm
20:22 55.8 °F /  13.2 °C 50.7 °F /  10.4 °C 29.9 in /  1013.1 hPa ENE 2 mph /  3.2 km/h 2 mph /  3.2 km/h 83 % 0 in /  0.0 mm
20:27 55.8 °F /  13.2 °C 50.4 °F /  10.2 °C 29.9 in /  1012.8 hPa ENE 1 mph /  1.6 km/h 3 mph /  4.8 km/h 82 % 0 in /  0.0 mm
20:32 55.6 °F /  13.1 °C 50.2 °F /  10.1 °C 29.9 in /  1012.8 hPa Calm   3 mph /  4.8 km/h 82 % 0 in /  0.0 mm
20:37 55.6 °F /  13.1 °C 50.5 °F /  10.3 °C 29.9 in /  1012.8 hPa NE 1 mph /  1.6 km/h 3 mph /  4.8 km/h 83 % 0 in /  0.0 mm
20:42 55.2 °F /  12.9 °C 50.2 °F /  10.1 °C 29.9 in /  1012.8 hPa Calm   3 mph /  4.8 km/h 83 % 0 in /  0.0 mm
20:52 54.9 °F /  12.7 °C 49.8 °F /  9.9 °C 29.9 in /  1012.8 hPa Calm   3 mph /  4.8 km/h 83 % 0 in /  0.0 mm
20:57 54.7 °F /  12.6 °C 50 °F /  10.0 °C 29.9 in /  1012.8 hPa Calm   2 mph /  3.2 km/h 84 % 0 in /  0.0 mm
21:02 54.3 °F /  12.4 °C 49.6 °F /  9.8 °C 29.9 in /  1012.8 hPa NE 1 mph /  1.6 km/h 2 mph /  3.2 km/h 84 % 0 in /  0.0 mm
21:07 54.1 °F /  12.3 °C 49.5 °F /  9.7 °C 29.9 in /  1012.8 hPa Calm   3 mph /  4.8 km/h 84 % 0 in /  0.0 mm
21:12 54 °F /  12.2 °C 49.3 °F /  9.6 °C 29.9 in /  1012.8 hPa Calm   3 mph /  4.8 km/h 84 % 0 in /  0.0 mm
21:17 53.8 °F /  12.1 °C 49.5 °F /  9.7 °C 29.9 in /  1012.8 hPa Calm   3 mph /  4.8 km/h 85 % 0 in /  0.0 mm
21:22 53.6 °F /  12.0 °C 49.3 °F /  9.6 °C 29.9 in /  1012.8 hPa Calm     85 % 0 in /  0.0 mm
21:27 53.4 °F /  11.9 °C 49.3 °F /  9.6 °C 29.9 in /  1012.8 hPa Calm     86 % 0 in /  0.0 mm
21:32 53.2 °F /  11.8 °C 49.1 °F /  9.5 °C 29.9 in /  1012.8 hPa Calm     86 % 0 in /  0.0 mm
21:42 53.1 °F /  11.7 °C 49.3 °F /  9.6 °C 29.9 in /  1012.8 hPa Calm     87 % 0 in /  0.0 mm
21:47 53.1 °F /  11.7 °C 48.9 °F /  9.4 °C 29.9 in /  1012.8 hPa Calm     86 % 0 in /  0.0 mm
21:57 52.5 °F /  11.4 °C 48.7 °F /  9.3 °C 29.9 in /  1012.8 hPa Calm     87 % 0 in /  0.0 mm
22:02 52.2 °F /  11.2 °C 48.4 °F /  9.1 °C 29.9 in /  1012.8 hPa Calm     87 % 0 in /  0.0 mm
22:07 52.2 °F /  11.2 °C 48.7 °F /  9.3 °C 29.9 in /  1012.8 hPa Calm     88 % 0 in /  0.0 mm
22:12 52.2 °F /  11.2 °C 49.1 °F /  9.5 °C 29.9 in /  1012.8 hPa Calm     89 % 0 in /  0.0 mm
22:17 52.3 °F /  11.3 °C 48.9 °F /  9.4 °C 29.9 in /  1012.8 hPa North 1 mph /  1.6 km/h 2 mph /  3.2 km/h 88 % 0 in /  0.0 mm
22:22 52.2 °F /  11.2 °C 48.7 °F /  9.3 °C 29.9 in /  1012.8 hPa Calm   2 mph /  3.2 km/h 88 % 0 in /  0.0 mm
22:27 51.6 °F /  10.9 °C 47.8 °F /  8.8 °C 29.9 in /  1012.8 hPa Calm   2 mph /  3.2 km/h 87 % 0 in /  0.0 mm
22:32 51.3 °F /  10.7 °C 48.2 °F /  9.0 °C 29.9 in /  1012.8 hPa Calm   1 mph /  1.6 km/h 89 % 0 in /  0.0 mm
22:37 51.3 °F /  10.7 °C 48.2 °F /  9.0 °C 29.9 in /  1012.8 hPa Calm   1 mph /  1.6 km/h 89 % 0 in /  0.0 mm
22:47 51.1 °F /  10.6 °C 48 °F /  8.9 °C 29.9 in /  1012.8 hPa Calm   2 mph /  3.2 km/h 89 % 0 in /  0.0 mm
22:52 51.3 °F /  10.7 °C 48.4 °F /  9.1 °C 29.9 in /  1012.8 hPa Calm   2 mph /  3.2 km/h 90 % 0 in /  0.0 mm
23:02 50.5 °F /  10.3 °C 47.7 °F /  8.7 °C 29.9 in /  1012.8 hPa Calm   1 mph /  1.6 km/h 90 % 0 in /  0.0 mm
23:07 50.7 °F /  10.4 °C 48.2 °F /  9.0 °C 29.9 in /  1012.8 hPa North 1 mph /  1.6 km/h 1 mph /  1.6 km/h 91 % 0 in /  0.0 mm
23:12 50.9 °F /  10.5 °C 48 °F /  8.9 °C 29.9 in /  1012.4 hPa NNE 2 mph /  3.2 km/h 2 mph /  3.2 km/h 90 % 0 in /  0.0 mm
23:22 51.3 °F /  10.7 °C 48.4 °F /  9.1 °C 29.9 in /  1012.4 hPa Calm   4 mph /  6.4 km/h 90 % 0 in /  0.0 mm
23:27 51.1 °F /  10.6 °C 48 °F /  8.9 °C 29.9 in /  1012.4 hPa Calm   4 mph /  6.4 km/h 89 % 0 in /  0.0 mm
23:32 50.5 °F /  10.3 °C 47.5 °F /  8.6 °C 29.9 in /  1012.1 hPa Calm   3 mph /  4.8 km/h 89 % 0 in /  0.0 mm
23:37 50.4 °F /  10.2 °C 47.5 °F /  8.6 °C 29.9 in /  1012.4 hPa NW 1 mph /  1.6 km/h 2 mph /  3.2 km/h 90 % 0 in /  0.0 mm
23:42 50.4 °F /  10.2 °C 47.8 °F /  8.8 °C 29.9 in /  1012.1 hPa Calm   1 mph /  1.6 km/h 91 % 0 in /  0.0 mm
23:47 50.7 °F /  10.4 °C 48.2 °F /  9.0 °C 29.9 in /  1012.1 hPa NW 1 mph /  1.6 km/h 1 mph /  1.6 km/h 91 % 0 in /  0.0 mm
23:52 50.2 °F /  10.1 °C 47.7 °F /  8.7 °C 29.9 in /  1012.1 hPa WNW 2 mph /  3.2 km/h 2 mph /  3.2 km/h 91 % 0 in /  0.0 mm
23:57 49.6 °F /  9.8 °C 47.5 °F /  8.6 °C 29.9 in /  1012.1 hPa WNW 1 mph /  1.6 km/h 2 mph /  3.2 km/h 92 % 0 in /  0.0 mm
Meteo18
Compliments of Weather Underground - 4 mb

Script developed by  Jim McMurry - jmcmurry@mwt.net Adapted for the template by  Wim van der Kuil - Leuven-Template.eu

You find our weather info also at:

European Weather Network

Weather Underground

Equipment we use:

Weather-station
Davis Vue

Weather-program
Meteohub

Weather-server
Raspberry PI 2 B+

Provider
1 and 1

Davis Vue

Meteohub

Raspberry PI 2 B+

1 and 1